Time;durP1;ratioP1;P1;durP2;ratioP2;P2;SDS_P1;SDS_P2;PMS_P1;PMS_P2;Temp;Humidity;BMP_temperature;BMP_pressure;BME280_temperature;BME280_humidity;BME280_pressure;Samples;Min_cycle;Max_cycle;Signal;HPM_P1;HPM_P2
2022/04/09 00:00:53;;;;;;;17.80;2.80;;;;;;;;;;5005301;28;20092;-73
2022/04/09 00:03:19;;;;;;;25.05;4.15;;;;;;;;;;5021866;28;20071;-73
2022/04/09 00:05:46;;;;;;;18.50;3.78;;;;;;;;;;5038084;28;20044;-73
2022/04/09 00:08:13;;;;;;;27.20;3.28;;;;;;;;;;5047212;28;20046;-74
2022/04/09 00:10:39;;;;;;;17.33;2.63;;;;;;;;;;5021546;28;20017;-73
2022/04/09 00:13:05;;;;;;;18.40;2.78;;;;;;;;;;5048577;28;20435;-74
2022/04/09 00:15:31;;;;;;;19.30;3.20;;;;;;;;;;5051795;28;20499;-74
2022/04/09 00:17:57;;;;;;;29.33;3.60;;;;;;;;;;5021806;28;20520;-73
2022/04/09 00:20:23;;;;;;;20.83;3.70;;;;;;;;;;5037984;28;20025;-73
2022/04/09 00:22:49;;;;;;;19.35;3.38;;;;;;;;;;5045337;28;20108;-74
2022/04/09 00:25:21;;;;;;;16.80;3.65;;;;;;;;;;5044152;28;20129;-73
2022/04/09 00:27:47;;;;;;;21.67;3.35;;;;;;;;;;5019559;28;20031;-73
2022/04/09 00:30:13;;;;;;;34.30;4.30;;;;;;;;;;5019309;28;20033;-73
2022/04/09 00:32:39;;;;;;;20.25;3.80;;;;;;;;;;5038631;28;20498;-73
2022/04/09 00:35:06;;;;;;;15.60;2.58;;;;;;;;;;5016560;28;20095;-73
2022/04/09 00:37:40;;;;;;;17.65;3.25;;;;;;;;;;5036863;28;20078;-74
2022/04/09 00:40:07;;;;;;;20.30;3.00;;;;;;;;;;5032644;28;20038;-74
2022/04/09 00:42:33;;;;;;;17.40;3.50;;;;;;;;;;5046997;28;20038;-73
2022/04/09 00:44:59;;;;;;;21.02;3.95;;;;;;;;;;5053058;28;20057;-73
2022/04/09 00:47:25;;;;;;;14.07;2.17;;;;;;;;;;5040689;28;20039;-73
2022/04/09 00:49:51;;;;;;;14.00;2.40;;;;;;;;;;5065297;28;20085;-74
2022/04/09 00:52:18;;;;;;;21.85;3.63;;;;;;;;;;5057055;28;20025;-74
2022/04/09 00:54:45;;;;;;;22.40;3.05;;;;;;;;;;5065798;28;20039;-73
2022/04/09 00:57:12;;;;;;;27.02;5.07;;;;;;;;;;5065999;28;20033;-75
2022/04/09 00:59:42;;;;;;;14.10;3.17;;;;;;;;;;5042499;28;20033;-72
2022/04/09 01:02:08;;;;;;;21.73;3.08;;;;;;;;;;5063390;28;20087;-73
2022/04/09 01:04:35;;;;;;;19.52;3.28;;;;;;;;;;5065013;28;20477;-74
2022/04/09 01:07:03;;;;;;;20.02;2.83;;;;;;;;;;5063256;28;20112;-74
2022/04/09 01:09:29;;;;;;;19.00;2.75;;;;;;;;;;5066525;28;20040;-73
2022/04/09 01:11:56;;;;;;;15.88;2.70;;;;;;;;;;5063304;28;20473;-73
2022/04/09 01:14:22;;;;;;;22.02;3.05;;;;;;;;;;5064940;28;20025;-74
2022/04/09 01:16:49;;;;;;;21.05;2.75;;;;;;;;;;5067793;28;20072;-73
2022/04/09 01:19:15;;;;;;;24.75;3.63;;;;;;;;;;5041350;28;20052;-73
2022/04/09 01:21:41;;;;;;;21.50;2.80;;;;;;;;;;5069947;28;20032;-73
2022/04/09 01:24:08;;;;;;;24.15;5.13;;;;;;;;;;5062882;28;20055;-74
2022/04/09 01:26:35;;;;;;;28.77;3.53;;;;;;;;;;5073867;28;20040;-74
2022/04/09 01:29:01;;;;;;;21.20;2.95;;;;;;;;;;5059298;28;20013;-73
2022/04/09 01:31:27;;;;;;;20.40;2.95;;;;;;;;;;5070985;28;20566;-73
2022/04/09 01:33:53;;;;;;;16.40;3.03;;;;;;;;;;5056667;28;20053;-73
2022/04/09 01:36:19;;;;;;;23.08;4.57;;;;;;;;;;5073506;28;20053;-73
2022/04/09 01:38:45;;;;;;;26.08;4.47;;;;;;;;;;5072949;28;20474;-74
2022/04/09 01:41:11;;;;;;;22.63;2.75;;;;;;;;;;5056599;28;20090;-75
2022/04/09 01:43:38;;;;;;;17.35;2.78;;;;;;;;;;5041399;28;20226;-74
2022/04/09 01:46:04;;;;;;;17.75;2.95;;;;;;;;;;5063374;28;20033;-74
2022/04/09 01:48:30;;;;;;;20.40;2.78;;;;;;;;;;5039179;28;20012;-74
2022/04/09 01:50:56;;;;;;;19.25;2.97;;;;;;;;;;5044325;28;20025;-74
2022/04/09 01:53:22;;;;;;;21.45;3.05;;;;;;;;;;5066877;28;20029;-74
2022/04/09 01:55:48;;;;;;;21.33;3.50;;;;;;;;;;5061167;28;20025;-74
2022/04/09 01:58:14;;;;;;;19.33;2.70;;;;;;;;;;5044248;28;20062;-74
2022/04/09 02:00:40;;;;;;;25.90;4.03;;;;;;;;;;5060815;28;20078;-74
2022/04/09 02:03:07;;;;;;;20.67;3.40;;;;;;;;;;5038837;28;20095;-75
2022/04/09 02:05:35;;;;;;;21.08;2.83;;;;;;;;;;5057999;28;20025;-74
2022/04/09 02:08:03;;;;;;;32.30;4.55;;;;;;;;;;5064731;28;20050;-75
2022/04/09 02:10:30;;;;;;;21.92;2.55;;;;;;;;;;5067102;28;20046;-74
2022/04/09 02:12:56;;;;;;;13.68;2.10;;;;;;;;;;5062902;28;20067;-73
2022/04/09 02:15:22;;;;;;;8.48;2.35;;;;;;;;;;5064239;28;20036;-74
2022/04/09 02:17:48;;;;;;;10.50;1.50;;;;;;;;;;5045253;28;20377;-74
2022/04/09 02:20:14;;;;;;;13.43;1.83;;;;;;;;;;5067739;28;20036;-74
2022/04/09 02:22:45;;;;;;;10.32;2.35;;;;;;;;;;5066550;28;20050;-74
2022/04/09 02:25:17;;;;;;;12.00;2.00;;;;;;;;;;5066369;28;20535;-74
2022/04/09 02:27:43;;;;;;;12.45;1.83;;;;;;;;;;5068796;28;20036;-73
2022/04/09 02:30:10;;;;;;;16.08;1.75;;;;;;;;;;5067944;28;20027;-73
2022/04/09 02:32:48;;;;;;;11.50;1.65;;;;;;;;;;5046392;28;20012;-73
2022/04/09 02:35:15;;;;;;;19.42;2.45;;;;;;;;;;5057898;28;20008;-74
2022/04/09 02:37:41;;;;;;;30.05;5.00;;;;;;;;;;5056408;28;20036;-74
2022/04/09 02:40:07;;;;;;;20.90;3.08;;;;;;;;;;5070137;28;20032;-73
2022/04/09 02:42:36;;;;;;;22.90;3.30;;;;;;;;;;5057537;28;20041;-74
2022/04/09 02:45:02;;;;;;;27.25;4.53;;;;;;;;;;5056530;28;20084;-72
2022/04/09 02:47:28;;;;;;;30.25;3.78;;;;;;;;;;5052588;28;20037;-74
2022/04/09 02:49:54;;;;;;;20.02;3.03;;;;;;;;;;5044442;28;20048;-75
2022/04/09 02:52:20;;;;;;;21.33;3.42;;;;;;;;;;5038833;28;20067;-74
2022/04/09 02:54:46;;;;;;;18.73;3.03;;;;;;;;;;5020855;28;20028;-74
2022/04/09 02:57:13;;;;;;;11.07;2.25;;;;;;;;;;5028341;28;20545;-74
2022/04/09 02:59:39;;;;;;;17.85;2.60;;;;;;;;;;5038138;28;20033;-74
2022/04/09 03:02:05;;;;;;;14.90;2.47;;;;;;;;;;5037386;28;20508;-74
2022/04/09 03:04:31;;;;;;;17.23;2.50;;;;;;;;;;5043885;28;20091;-74
2022/04/09 03:06:57;;;;;;;18.25;2.53;;;;;;;;;;5043864;28;20026;-74
2022/04/09 03:09:25;;;;;;;26.38;2.47;;;;;;;;;;5035234;28;20029;-74
2022/04/09 03:11:51;;;;;;;23.00;3.17;;;;;;;;;;5043383;28;20105;-73
2022/04/09 03:14:17;;;;;;;22.52;2.78;;;;;;;;;;5025700;28;20183;-73
2022/04/09 03:16:43;;;;;;;21.38;3.17;;;;;;;;;;5018175;28;20499;-74
2022/04/09 03:19:09;;;;;;;14.80;3.58;;;;;;;;;;5042616;28;20033;-74
2022/04/09 03:21:35;;;;;;;20.08;2.78;;;;;;;;;;5023541;28;20037;-74
2022/04/09 03:24:01;;;;;;;18.17;2.28;;;;;;;;;;5019849;28;20036;-74
2022/04/09 03:26:27;;;;;;;16.80;2.65;;;;;;;;;;5017758;28;20042;-74
2022/04/09 03:28:53;;;;;;;11.52;2.15;;;;;;;;;;5022830;28;20164;-74
2022/04/09 03:31:19;;;;;;;18.55;2.85;;;;;;;;;;5040183;28;20083;-74
2022/04/09 03:33:47;;;;;;;22.33;2.92;;;;;;;;;;5018509;28;20033;-74
2022/04/09 03:36:13;;;;;;;19.88;2.42;;;;;;;;;;5036308;28;20022;-73
2022/04/09 03:38:41;;;;;;;16.48;2.95;;;;;;;;;;5043405;28;20030;-73
2022/04/09 03:41:07;;;;;;;18.60;4.28;;;;;;;;;;5042614;28;20023;-73
2022/04/09 03:43:33;;;;;;;24.52;2.67;;;;;;;;;;5044492;28;20459;-73
2022/04/09 03:45:59;;;;;;;16.20;2.60;;;;;;;;;;5058815;28;20067;-73
2022/04/09 03:48:25;;;;;;;42.42;4.88;;;;;;;;;;5044702;28;20027;-74
2022/04/09 03:50:51;;;;;;;18.88;2.80;;;;;;;;;;5040603;28;20029;-73
2022/04/09 03:53:20;;;;;;;21.60;3.42;;;;;;;;;;5063573;28;20033;-73
2022/04/09 03:55:50;;;;;;;22.50;2.70;;;;;;;;;;5036547;28;20029;-73
2022/04/09 03:58:16;;;;;;;13.00;2.83;;;;;;;;;;5041073;28;20086;-73
2022/04/09 04:00:43;;;;;;;21.17;3.00;;;;;;;;;;5045537;28;20093;-74
2022/04/09 04:03:10;;;;;;;20.83;3.17;;;;;;;;;;5041747;28;20032;-74
2022/04/09 04:05:36;;;;;;;20.25;2.90;;;;;;;;;;5064060;28;20021;-73
2022/04/09 04:08:03;;;;;;;21.25;4.15;;;;;;;;;;5046899;28;20104;-74
2022/04/09 04:10:29;;;;;;;20.15;3.35;;;;;;;;;;5062972;28;20044;-73
2022/04/09 04:12:56;;;;;;;24.23;3.88;;;;;;;;;;5054386;28;20041;-73
2022/04/09 04:15:23;;;;;;;21.42;3.03;;;;;;;;;;5056692;28;20020;-73
2022/04/09 04:17:49;;;;;;;20.33;2.58;;;;;;;;;;5049316;28;20028;-73
2022/04/09 04:20:15;;;;;;;16.75;2.85;;;;;;;;;;5034454;28;20037;-74
2022/04/09 04:22:41;;;;;;;23.73;3.00;;;;;;;;;;5042695;28;20033;-73
2022/04/09 04:25:09;;;;;;;19.65;2.33;;;;;;;;;;5038725;28;20052;-72
2022/04/09 04:27:40;;;;;;;19.98;2.63;;;;;;;;;;5041165;28;20450;-73
2022/04/09 04:30:07;;;;;;;15.60;2.50;;;;;;;;;;5063214;28;20033;-74
2022/04/09 04:32:34;;;;;;;15.07;2.53;;;;;;;;;;5063764;28;20036;-74
2022/04/09 04:35:00;;;;;;;20.80;2.33;;;;;;;;;;5055489;28;20021;-74
2022/04/09 04:37:35;;;;;;;16.60;2.55;;;;;;;;;;5046921;28;20035;-72
2022/04/09 04:40:01;;;;;;;20.15;3.20;;;;;;;;;;5048890;28;20028;-73
2022/04/09 04:42:27;;;;;;;24.35;3.65;;;;;;;;;;5051759;28;20032;-73
2022/04/09 04:44:54;;;;;;;13.85;2.60;;;;;;;;;;5035355;28;20056;-73
2022/04/09 04:47:20;;;;;;;19.38;2.45;;;;;;;;;;5058420;28;20059;-73
2022/04/09 04:49:46;;;;;;;17.83;2.45;;;;;;;;;;5056338;28;20527;-73
2022/04/09 04:52:12;;;;;;;16.35;3.38;;;;;;;;;;5030632;28;20036;-73
2022/04/09 04:54:38;;;;;;;16.52;2.92;;;;;;;;;;5050726;28;20053;-73
2022/04/09 04:57:04;;;;;;;17.98;3.28;;;;;;;;;;5063956;28;20032;-73
2022/04/09 04:59:30;;;;;;;25.17;4.00;;;;;;;;;;5066254;28;20047;-73
2022/04/09 05:01:56;;;;;;;14.07;3.08;;;;;;;;;;5063009;28;20013;-73
2022/04/09 05:04:25;;;;;;;22.10;3.63;;;;;;;;;;5048940;28;20470;-74
2022/04/09 05:06:51;;;;;;;19.25;2.92;;;;;;;;;;5065191;28;20174;-73
2022/04/09 05:09:17;;;;;;;17.48;2.70;;;;;;;;;;5044766;28;20037;-73
2022/04/09 05:11:43;;;;;;;29.67;3.50;;;;;;;;;;5064683;28;20050;-73
2022/04/09 05:14:09;;;;;;;30.25;4.55;;;;;;;;;;5042820;28;20044;-75
2022/04/09 05:16:35;;;;;;;22.13;2.38;;;;;;;;;;5051399;28;20099;-73
2022/04/09 05:19:01;;;;;;;19.35;3.67;;;;;;;;;;5073198;28;20062;-74
2022/04/09 05:21:27;;;;;;;14.35;3.05;;;;;;;;;;5041570;28;20045;-73
2022/04/09 05:23:53;;;;;;;14.07;2.42;;;;;;;;;;5065383;28;20025;-73
2022/04/09 05:26:19;;;;;;;24.40;3.13;;;;;;;;;;5062235;28;20032;-74
2022/04/09 05:28:45;;;;;;;15.65;2.38;;;;;;;;;;5068051;28;20033;-73
2022/04/09 05:31:12;;;;;;;33.47;3.78;;;;;;;;;;5050983;28;20032;-76
2022/04/09 05:33:38;;;;;;;22.60;2.78;;;;;;;;;;5062475;28;20360;-73
2022/04/09 05:36:05;;;;;;;16.65;3.17;;;;;;;;;;5060658;28;20055;-73
2022/04/09 05:38:32;;;;;;;20.35;2.67;;;;;;;;;;5071983;28;20048;-73
2022/04/09 05:40:58;;;;;;;13.80;2.85;;;;;;;;;;5074457;28;20036;-73
2022/04/09 05:43:24;;;;;;;22.63;2.95;;;;;;;;;;5031164;28;20135;-73
2022/04/09 05:45:51;;;;;;;26.67;2.75;;;;;;;;;;5071967;28;20024;-74
2022/04/09 05:48:20;;;;;;;21.73;2.78;;;;;;;;;;5054438;28;20021;-74
2022/04/09 05:50:46;;;;;;;18.23;2.35;;;;;;;;;;5067628;28;20059;-74
2022/04/09 05:53:12;;;;;;;12.00;1.85;;;;;;;;;;5073972;28;20033;-74
2022/04/09 05:55:38;;;;;;;18.13;2.20;;;;;;;;;;5070079;28;20037;-74
2022/04/09 05:58:04;;;;;;;14.50;2.40;;;;;;;;;;5047858;28;20443;-74
2022/04/09 06:00:31;;;;;;;21.30;2.50;;;;;;;;;;5066705;28;20064;-73
2022/04/09 06:02:57;;;;;;;15.25;1.85;;;;;;;;;;5048222;28;20044;-73
2022/04/09 06:05:23;;;;;;;16.48;2.40;;;;;;;;;;5046775;28;20029;-72
2022/04/09 06:07:49;;;;;;;17.17;3.20;;;;;;;;;;5046665;28;20097;-73
2022/04/09 06:10:15;;;;;;;15.90;2.42;;;;;;;;;;5069267;28;20039;-73
2022/04/09 06:12:41;;;;;;;9.63;2.17;;;;;;;;;;5072752;28;20033;-73
2022/04/09 06:15:07;;;;;;;16.83;2.42;;;;;;;;;;5070509;28;20498;-73
2022/04/09 06:17:36;;;;;;;14.10;3.00;;;;;;;;;;5077247;28;20039;-73
2022/04/09 06:20:01;;;;;;;18.33;2.92;;;;;;;;;;5067293;28;20088;-73
2022/04/09 06:22:27;;;;;;;15.32;2.38;;;;;;;;;;5070459;28;20064;-73
2022/04/09 06:24:53;;;;;;;19.33;2.50;;;;;;;;;;5067414;28;20043;-73
2022/04/09 06:27:19;;;;;;;11.15;2.30;;;;;;;;;;5062132;28;20028;-72
2022/04/09 06:29:46;;;;;;;14.23;2.50;;;;;;;;;;5040546;28;20025;-72
2022/04/09 06:32:11;;;;;;;15.45;2.42;;;;;;;;;;5044904;28;20052;-74
2022/04/09 06:34:38;;;;;;;17.77;2.15;;;;;;;;;;5066157;28;20024;-72
2022/04/09 06:37:04;;;;;;;11.13;1.77;;;;;;;;;;5065681;28;20035;-74
2022/04/09 06:39:31;;;;;;;13.52;2.25;;;;;;;;;;5068292;28;20119;-73
2022/04/09 06:41:57;;;;;;;12.25;2.97;;;;;;;;;;5061467;28;20049;-73
2022/04/09 06:44:25;;;;;;;13.00;1.80;;;;;;;;;;5051839;28;20104;-72
2022/04/09 06:46:51;;;;;;;15.55;2.47;;;;;;;;;;5064150;28;20180;-76
2022/04/09 06:49:17;;;;;;;12.35;1.70;;;;;;;;;;5069711;28;20469;-77
2022/04/09 06:51:44;;;;;;;9.63;2.63;;;;;;;;;;5078862;28;20036;-76
2022/04/09 06:54:10;;;;;;;7.68;1.80;;;;;;;;;;5078414;28;20037;-76
2022/04/09 06:56:39;;;;;;;6.53;1.50;;;;;;;;;;5067930;28;20362;-76
2022/04/09 06:59:06;;;;;;;8.10;1.20;;;;;;;;;;5037996;28;20090;-75
2022/04/09 07:01:32;;;;;;;9.20;1.90;;;;;;;;;;5042694;28;20040;-76
2022/04/09 07:04:00;;;;;;;7.93;1.92;;;;;;;;;;5060468;28;20106;-77
2022/04/09 07:06:26;;;;;;;5.55;1.30;;;;;;;;;;5066383;28;20044;-75
2022/04/09 07:08:52;;;;;;;14.15;1.92;;;;;;;;;;5056429;28;20457;-76
2022/04/09 07:11:19;;;;;;;11.65;1.98;;;;;;;;;;5062461;28;20028;-75
2022/04/09 07:13:45;;;;;;;8.38;1.20;;;;;;;;;;5042073;28;20078;-76
2022/04/09 07:16:11;;;;;;;6.10;1.98;;;;;;;;;;5056633;28;20036;-78
2022/04/09 07:18:37;;;;;;;5.05;0.98;;;;;;;;;;5053393;28;20048;-76
2022/04/09 07:21:03;;;;;;;7.82;1.25;;;;;;;;;;5037165;28;20062;-75
2022/04/09 07:23:29;;;;;;;6.18;1.50;;;;;;;;;;5042015;28;20040;-74
2022/04/09 07:25:55;;;;;;;8.15;1.33;;;;;;;;;;5053981;28;20037;-73
2022/04/09 07:28:21;;;;;;;8.45;1.58;;;;;;;;;;5041379;28;20035;-74
2022/04/09 07:30:47;;;;;;;9.73;1.95;;;;;;;;;;5071287;28;20402;-74
2022/04/09 07:33:13;;;;;;;11.48;1.42;;;;;;;;;;5046035;28;20029;-74
2022/04/09 07:35:39;;;;;;;9.38;2.08;;;;;;;;;;5044824;28;20063;-73
2022/04/09 07:38:07;;;;;;;10.52;1.90;;;;;;;;;;5079194;28;20019;-74
2022/04/09 07:40:34;;;;;;;13.65;1.70;;;;;;;;;;5080678;28;20078;-74
2022/04/09 07:43:00;;;;;;;9.30;2.20;;;;;;;;;;5052786;28;20095;-73
2022/04/09 07:45:27;;;;;;;16.25;2.00;;;;;;;;;;5043589;28;20044;-73
2022/04/09 07:47:54;;;;;;;18.42;2.15;;;;;;;;;;5061529;28;20024;-74
2022/04/09 07:50:20;;;;;;;12.80;1.77;;;;;;;;;;5060924;28;20040;-73
2022/04/09 07:52:46;;;;;;;14.63;1.80;;;;;;;;;;5059800;28;20122;-74
2022/04/09 07:55:16;;;;;;;21.60;2.40;;;;;;;;;;5061000;28;20044;-74
2022/04/09 07:57:47;;;;;;;17.08;2.80;;;;;;;;;;5054036;28;20013;-74
2022/04/09 08:00:14;;;;;;;13.50;2.17;;;;;;;;;;5079465;28;20028;-73
2022/04/09 08:02:40;;;;;;;14.05;2.05;;;;;;;;;;5066341;28;20494;-73
2022/04/09 08:05:06;;;;;;;10.02;2.10;;;;;;;;;;5045899;28;20028;-74
2022/04/09 08:07:32;;;;;;;13.85;3.15;;;;;;;;;;5078746;28;20039;-74
2022/04/09 08:09:58;;;;;;;10.68;1.83;;;;;;;;;;5042579;28;20013;-73
2022/04/09 08:12:24;;;;;;;11.60;2.20;;;;;;;;;;5056579;28;20042;-73
2022/04/09 08:14:51;;;;;;;16.42;2.70;;;;;;;;;;5065217;28;20080;-74
2022/04/09 08:17:20;;;;;;;15.63;2.20;;;;;;;;;;5036438;28;20083;-75
2022/04/09 08:19:46;;;;;;;17.90;2.42;;;;;;;;;;5065392;28;20040;-74
2022/04/09 08:22:12;;;;;;;11.57;1.98;;;;;;;;;;5063030;28;20055;-75
2022/04/09 08:24:40;;;;;;;12.18;2.42;;;;;;;;;;5055574;28;20124;-74
2022/04/09 08:27:08;;;;;;;14.32;2.20;;;;;;;;;;5063930;28;20083;-75
2022/04/09 08:29:34;;;;;;;16.65;2.42;;;;;;;;;;5063489;28;20045;-74
2022/04/09 08:32:01;;;;;;;15.57;2.65;;;;;;;;;;5065807;28;20442;-74
2022/04/09 08:34:29;;;;;;;21.70;3.35;;;;;;;;;;5034375;28;20059;-76
2022/04/09 08:36:55;;;;;;;14.25;3.45;;;;;;;;;;5055232;28;20028;-74
2022/04/09 08:39:21;;;;;;;15.82;3.10;;;;;;;;;;5051104;28;20024;-76
2022/04/09 08:41:48;;;;;;;15.60;2.88;;;;;;;;;;5061232;28;20140;-76
2022/04/09 08:44:14;;;;;;;14.30;1.80;;;;;;;;;;5049088;28;20387;-76
2022/04/09 08:46:41;;;;;;;13.45;2.30;;;;;;;;;;5045736;28;20098;-80
2022/04/09 08:49:07;;;;;;;12.60;2.53;;;;;;;;;;5071309;28;20017;-77
2022/04/09 08:51:34;;;;;;;14.88;2.08;;;;;;;;;;5054661;28;20036;-78
2022/04/09 08:54:02;;;;;;;22.45;2.67;;;;;;;;;;5052524;28;20041;-77
2022/04/09 08:56:29;;;;;;;13.90;2.72;;;;;;;;;;5080603;28;20043;-78
2022/04/09 08:58:57;;;;;;;15.70;2.40;;;;;;;;;;5062143;28;20075;-75
2022/04/09 09:01:23;;;;;;;24.00;3.13;;;;;;;;;;5072504;28;20024;-75
2022/04/09 09:03:50;;;;;;;10.40;1.83;;;;;;;;;;5061355;28;20025;-75
2022/04/09 09:06:27;;;;;;;13.13;2.10;;;;;;;;;;5063506;28;20430;-76
2022/04/09 09:08:53;;;;;;;13.43;1.30;;;;;;;;;;5072377;28;20107;-75
2022/04/09 09:11:20;;;;;;;13.45;1.52;;;;;;;;;;5078695;28;20062;-75
2022/04/09 09:13:57;;;;;;;19.95;2.40;;;;;;;;;;5038575;28;20533;-77
2022/04/09 09:16:25;;;;;;;13.57;2.60;;;;;;;;;;5073527;28;20077;-78
2022/04/09 09:18:52;;;;;;;9.40;1.85;;;;;;;;;;5064494;28;20486;-76
2022/04/09 09:21:23;;;;;;;8.32;1.23;;;;;;;;;;5047354;28;20036;-76
2022/04/09 09:23:49;;;;;;;8.20;1.80;;;;;;;;;;5037713;28;20020;-75
2022/04/09 09:26:21;;;;;;;8.63;1.23;;;;;;;;;;5052136;28;20060;-76
2022/04/09 09:28:54;;;;;;;7.47;1.30;;;;;;;;;;5052203;28;20033;-76
2022/04/09 09:31:20;;;;;;;7.82;1.35;;;;;;;;;;5057283;28;20025;-75
2022/04/09 09:33:49;;;;;;;7.43;1.30;;;;;;;;;;5067206;28;20088;-75
2022/04/09 09:36:15;;;;;;;7.50;1.73;;;;;;;;;;5061216;28;20025;-76
2022/04/09 09:38:41;;;;;;;9.57;1.63;;;;;;;;;;5064867;28;20533;-74
2022/04/09 09:41:21;;;;;;;10.77;1.77;;;;;;;;;;5072770;28;20478;-75
2022/04/09 09:44:00;;;;;;;11.90;1.65;;;;;;;;;;5054280;28;20295;-76
2022/04/09 09:46:26;;;;;;;10.02;1.80;;;;;;;;;;5068918;28;20036;-76
2022/04/09 09:48:52;;;;;;;15.02;2.40;;;;;;;;;;5058107;28;20070;-77
2022/04/09 09:51:27;;;;;;;9.65;1.85;;;;;;;;;;5059571;28;20490;-77
2022/04/09 09:54:04;;;;;;;20.55;3.83;;;;;;;;;;5058126;28;20037;-76
2022/04/09 09:56:41;;;;;;;13.80;2.20;;;;;;;;;;5053947;28;20037;-78
2022/04/09 09:59:08;;;;;;;12.20;2.00;;;;;;;;;;5065701;28;20205;-77
2022/04/09 10:01:38;;;;;;;7.53;1.45;;;;;;;;;;5064636;28;20056;-77
2022/04/09 10:04:05;;;;;;;7.75;1.58;;;;;;;;;;5073304;28;20490;-75
2022/04/09 10:06:35;;;;;;;19.15;2.17;;;;;;;;;;5053388;28;20034;-77
2022/04/09 10:09:05;;;;;;;15.27;2.58;;;;;;;;;;5059585;28;20029;-76
2022/04/09 10:11:34;;;;;;;20.10;2.10;;;;;;;;;;5066819;28;20032;-77
2022/04/09 10:14:01;;;;;;;12.18;2.45;;;;;;;;;;5044516;28;20418;-76
2022/04/09 10:16:27;;;;;;;8.50;1.27;;;;;;;;;;5061942;28;20569;-76
2022/04/09 10:18:56;;;;;;;7.13;1.08;;;;;;;;;;5063510;28;20019;-76
2022/04/09 10:21:22;;;;;;;4.80;1.35;;;;;;;;;;5058581;28;20033;-76
2022/04/09 10:23:48;;;;;;;15.10;2.60;;;;;;;;;;5059882;28;20116;-76
2022/04/09 10:26:16;;;;;;;11.27;1.67;;;;;;;;;;5040835;28;20145;-78
2022/04/09 10:28:42;;;;;;;7.20;1.70;;;;;;;;;;5053874;28;20072;-76
2022/04/09 10:31:23;;;;;;;7.35;1.70;;;;;;;;;;5055592;28;20025;-77
2022/04/09 10:33:56;;;;;;;9.75;1.70;;;;;;;;;;5038062;28;20029;-76
2022/04/09 10:36:40;;;;;;;11.68;2.42;;;;;;;;;;5053324;28;20083;-76
2022/04/09 10:39:26;;;;;;;13.23;1.48;;;;;;;;;;5040145;28;20017;-75
2022/04/09 10:41:55;;;;;;;6.28;1.50;;;;;;;;;;5062596;28;20097;-75
2022/04/09 10:44:39;;;;;;;10.05;1.58;;;;;;;;;;5042584;28;20096;-77
2022/04/09 10:47:06;;;;;;;6.53;2.00;;;;;;;;;;5036378;28;20030;-74
2022/04/09 10:49:33;;;;;;;7.78;1.10;;;;;;;;;;5031672;28;20091;-75
2022/04/09 10:52:11;;;;;;;7.68;1.55;;;;;;;;;;5045960;28;20124;-75
2022/04/09 10:54:37;;;;;;;11.20;1.70;;;;;;;;;;5052625;28;20100;-77
2022/04/09 10:57:07;;;;;;;14.52;2.65;;;;;;;;;;5056214;28;20096;-75
2022/04/09 10:59:34;;;;;;;7.30;1.93;;;;;;;;;;5041614;28;20025;-75
2022/04/09 11:02:00;;;;;;;8.70;1.55;;;;;;;;;;5045157;28;20044;-76
2022/04/09 11:04:26;;;;;;;8.55;1.10;;;;;;;;;;5050201;28;20599;-75
2022/04/09 11:07:11;;;;;;;7.35;1.60;;;;;;;;;;5048358;28;20083;-75
2022/04/09 11:09:44;;;;;;;9.02;1.58;;;;;;;;;;5061386;28;20037;-76
2022/04/09 11:12:10;;;;;;;12.25;1.77;;;;;;;;;;5057483;28;20553;-75
2022/04/09 11:14:49;;;;;;;8.95;1.70;;;;;;;;;;5061267;28;20041;-75
2022/04/09 11:17:16;;;;;;;9.32;1.70;;;;;;;;;;5054306;28;20491;-76
2022/04/09 11:19:43;;;;;;;11.98;2.10;;;;;;;;;;5048658;28;20056;-76
2022/04/09 11:22:09;;;;;;;15.13;2.22;;;;;;;;;;5030175;28;20017;-76
2022/04/09 11:24:36;;;;;;;9.93;1.60;;;;;;;;;;5042610;28;20033;-74
2022/04/09 11:27:04;;;;;;;6.03;1.38;;;;;;;;;;5027129;28;20021;-75
2022/04/09 11:29:33;;;;;;;7.53;1.52;;;;;;;;;;5053608;28;20022;-76
2022/04/09 11:32:00;;;;;;;8.27;1.50;;;;;;;;;;5021399;28;20009;-76
2022/04/09 11:34:26;;;;;;;8.20;1.33;;;;;;;;;;5019645;28;20061;-76
2022/04/09 11:36:53;;;;;;;12.70;1.90;;;;;;;;;;5042885;28;20386;-78
2022/04/09 11:39:19;;;;;;;6.82;1.40;;;;;;;;;;5053892;28;20017;-75
2022/04/09 11:41:48;;;;;;;7.82;1.70;;;;;;;;;;5043312;28;20060;-75
2022/04/09 11:44:29;;;;;;;9.13;1.52;;;;;;;;;;5050983;28;20060;-73
2022/04/09 11:46:55;;;;;;;14.32;2.95;;;;;;;;;;5027672;28;20474;-78
2022/04/09 11:49:28;;;;;;;12.55;2.15;;;;;;;;;;5052704;28;20033;-80
2022/04/09 11:51:55;;;;;;;9.80;1.60;;;;;;;;;;5035519;28;20032;-81
2022/04/09 11:54:21;;;;;;;10.63;2.15;;;;;;;;;;5053368;28;20097;-80
2022/04/09 11:56:47;;;;;;;10.40;2.08;;;;;;;;;;5047312;28;20029;-84
2022/04/09 11:59:13;;;;;;;11.77;2.90;;;;;;;;;;5055556;28;20040;-85
2022/04/09 12:01:44;;;;;;;11.55;2.13;;;;;;;;;;5065516;28;20070;-80
2022/04/09 12:04:10;;;;;;;13.15;2.90;;;;;;;;;;5068751;28;20116;-81
2022/04/09 12:06:37;;;;;;;13.85;2.17;;;;;;;;;;5036617;28;20044;-80
2022/04/09 12:09:03;;;;;;;8.50;1.52;;;;;;;;;;5056385;28;20362;-80
2022/04/09 12:11:29;;;;;;;16.17;2.28;;;;;;;;;;5059908;28;20055;-79
2022/04/09 12:13:56;;;;;;;10.40;1.90;;;;;;;;;;5065192;28;20045;-82
2022/04/09 12:16:22;;;;;;;11.85;2.53;;;;;;;;;;5061362;28;20025;-77
2022/04/09 12:18:48;;;;;;;9.27;2.22;;;;;;;;;;5067645;28;20028;-78
2022/04/09 12:21:24;;;;;;;13.32;2.67;;;;;;;;;;5049665;28;20033;-83
2022/04/09 12:24:01;;;;;;;12.20;1.80;;;;;;;;;;5043179;28;20087;-80
2022/04/09 12:26:27;;;;;;;8.88;1.58;;;;;;;;;;5061364;28;20071;-79
2022/04/09 12:29:12;;;;;;;6.70;1.52;;;;;;;;;;5059991;28;20105;-81
2022/04/09 12:31:40;;;;;;;6.88;1.40;;;;;;;;;;5057104;28;20036;-81
2022/04/09 12:34:06;;;;;;;5.70;1.58;;;;;;;;;;5058992;28;20044;-78
2022/04/09 12:36:32;;;;;;;3.40;0.90;;;;;;;;;;5058571;28;20013;-79
2022/04/09 12:39:00;;;;;;;3.35;1.05;;;;;;;;;;5067108;28;20055;-79
2022/04/09 12:41:27;;;;;;;3.97;0.93;;;;;;;;;;5044741;28;20387;-79
2022/04/09 12:43:54;;;;;;;5.30;1.30;;;;;;;;;;5039786;28;20049;-79
2022/04/09 12:46:20;;;;;;;6.00;1.55;;;;;;;;;;5040660;28;20017;-78
2022/04/09 12:48:47;;;;;;;7.53;1.23;;;;;;;;;;5048018;28;20044;-79
2022/04/09 12:51:15;;;;;;;3.03;0.80;;;;;;;;;;5039412;28;20037;-80
2022/04/09 12:53:42;;;;;;;3.65;1.00;;;;;;;;;;5038343;28;20059;-81
2022/04/09 12:56:09;;;;;;;2.30;0.70;;;;;;;;;;5037574;28;20029;-82
2022/04/09 12:58:35;;;;;;;1.23;0.70;;;;;;;;;;5036405;28;20248;-82
2022/04/09 13:01:01;;;;;;;4.40;0.70;;;;;;;;;;5042284;28;20049;-81
2022/04/09 13:03:27;;;;;;;7.65;1.25;;;;;;;;;;5040659;28;20033;-83
2022/04/09 13:05:53;;;;;;;7.00;1.77;;;;;;;;;;5039652;28;20028;-79
2022/04/09 13:08:19;;;;;;;4.70;1.20;;;;;;;;;;5033655;28;20034;-82
2022/04/09 13:10:45;;;;;;;4.95;1.25;;;;;;;;;;5036559;28;20025;-83
2022/04/09 13:13:11;;;;;;;3.60;1.35;;;;;;;;;;5018904;28;20033;-81
2022/04/09 13:15:37;;;;;;;5.63;1.20;;;;;;;;;;5036895;28;20513;-80
2022/04/09 13:18:03;;;;;;;5.32;1.40;;;;;;;;;;5038212;28;20037;-82
2022/04/09 13:20:29;;;;;;;7.97;1.40;;;;;;;;;;5041529;28;20109;-79
2022/04/09 13:22:55;;;;;;;8.63;1.50;;;;;;;;;;5038882;28;20597;-82
2022/04/09 13:25:21;;;;;;;5.50;1.40;;;;;;;;;;5041458;28;20029;-82
2022/04/09 13:27:49;;;;;;;6.40;1.40;;;;;;;;;;5039539;28;20132;-84
2022/04/09 13:30:15;;;;;;;8.15;2.28;;;;;;;;;;5041915;28;20115;-81
2022/04/09 13:32:42;;;;;;;7.50;1.90;;;;;;;;;;5051261;28;20052;-82
2022/04/09 13:35:08;;;;;;;13.57;2.05;;;;;;;;;;5044867;28;20012;-81
2022/04/09 13:37:34;;;;;;;11.15;2.20;;;;;;;;;;5046706;28;20021;-81
2022/04/09 13:40:00;;;;;;;7.45;2.20;;;;;;;;;;5048379;28;20029;-78
2022/04/09 13:42:27;;;;;;;8.10;2.00;;;;;;;;;;5047188;28;20506;-80
2022/04/09 13:44:53;;;;;;;14.73;2.15;;;;;;;;;;5019528;28;20047;-80
2022/04/09 13:47:19;;;;;;;17.00;2.65;;;;;;;;;;5026455;28;20030;-81
2022/04/09 13:49:45;;;;;;;13.50;2.83;;;;;;;;;;5033604;28;20039;-80
2022/04/09 13:52:11;;;;;;;13.23;3.45;;;;;;;;;;5025743;28;20025;-79
2022/04/09 13:54:38;;;;;;;14.18;2.55;;;;;;;;;;5024899;28;20017;-79
2022/04/09 13:57:04;;;;;;;20.58;3.33;;;;;;;;;;5045155;28;20041;-80
2022/04/09 13:59:31;;;;;;;7.05;1.85;;;;;;;;;;5027675;28;20030;-87
2022/04/09 14:01:57;;;;;;;8.50;1.67;;;;;;;;;;5014751;28;20017;-82
2022/04/09 14:04:23;;;;;;;12.23;1.85;;;;;;;;;;5049027;28;20037;-80
2022/04/09 14:06:49;;;;;;;12.93;2.22;;;;;;;;;;5047436;28;20395;-80
2022/04/09 14:09:16;;;;;;;8.55;2.53;;;;;;;;;;5050082;28;20029;-80
2022/04/09 14:11:42;;;;;;;6.65;1.70;;;;;;;;;;5047759;28;20103;-79
2022/04/09 14:14:09;;;;;;;11.02;2.17;;;;;;;;;;5048380;28;20518;-78
2022/04/09 14:16:35;;;;;;;12.95;2.10;;;;;;;;;;5025207;28;20083;-81
2022/04/09 14:19:01;;;;;;;10.85;2.30;;;;;;;;;;5029255;28;20041;-80
2022/04/09 14:21:28;;;;;;;10.23;1.90;;;;;;;;;;5024884;28;20033;-82
2022/04/09 14:23:54;;;;;;;11.60;2.25;;;;;;;;;;5042763;28;20124;-80
2022/04/09 14:26:20;;;;;;;12.27;2.10;;;;;;;;;;5040256;28;20556;-81
2022/04/09 14:28:46;;;;;;;7.93;2.30;;;;;;;;;;5039846;28;20104;-81
2022/04/09 14:31:12;;;;;;;10.27;1.90;;;;;;;;;;5023811;28;20028;-80
2022/04/09 14:33:39;;;;;;;10.00;1.85;;;;;;;;;;5023622;28;20037;-79